Time;durP1;ratioP1;P1;durP2;ratioP2;P2;SDS_P1;SDS_P2;PMS_P1;PMS_P2;Temp;Humidity;BMP_temperature;BMP_pressure;BME280_temperature;BME280_humidity;BME280_pressure;Samples;Min_cycle;Max_cycle;Signal;HPM_P1;HPM_P2
2022/06/29 00:00:34;;;;;;;7.15;6.03;;;;;;;22.26;81.00;100448.53;2819484;83;21023;-92
2022/06/29 00:04:37;;;;;;;8.53;7.08;;;;;;;22.16;81.51;100437.20;2765298;83;21141;-92
2022/06/29 00:08:39;;;;;;;8.28;5.70;;;;;;;22.08;82.01;100439.05;2813572;83;21027;-92
2022/06/29 00:12:42;;;;;;;6.78;6.03;;;;;;;22.02;82.25;100426.31;2784499;83;20983;-92
2022/06/29 00:16:44;;;;;;;5.55;4.92;;;;;;;22.01;82.18;100429.20;2813571;83;21023;-93
2022/06/29 00:20:46;;;;;;;6.22;5.62;;;;;;;21.96;82.40;100420.31;2820864;83;21471;-93
2022/06/29 00:24:48;;;;;;;6.47;5.97;;;;;;;21.90;82.86;100418.41;2806724;83;21023;-91
2022/06/29 00:28:49;;;;;;;9.35;5.90;;;;;;;21.86;82.74;100418.48;2805040;83;21102;-92
2022/06/29 00:32:50;;;;;;;6.53;5.45;;;;;;;21.87;82.88;100430.98;2810380;83;21074;-92
2022/06/29 00:36:52;;;;;;;8.95;4.87;;;;;;;21.83;82.98;100428.67;2805255;83;21051;-93
2022/06/29 00:40:54;;;;;;;8.60;6.30;;;;;;;21.79;83.38;100424.66;2817365;83;21032;-92
2022/06/29 00:44:55;;;;;;;8.25;5.78;;;;;;;21.79;83.52;100421.13;2819344;83;21008;-92
2022/06/29 00:48:56;;;;;;;5.67;4.75;;;;;;;21.79;83.45;100436.84;2807997;83;21039;-92
2022/06/29 00:53:03;;;;;;;7.20;5.00;;;;;;;21.87;83.40;100449.94;2785403;83;21046;-93
2022/06/29 00:57:15;;;;;;;6.53;5.87;;;;;;;21.89;83.42;100447.33;2792580;83;21035;-93
2022/06/29 01:01:17;;;;;;;8.93;6.80;;;;;;;21.94;83.41;100456.23;2808594;83;21566;-93
2022/06/29 01:05:19;;;;;;;6.65;5.97;;;;;;;22.01;82.85;100455.78;2807345;83;21058;-92
2022/06/29 01:09:20;;;;;;;7.40;5.78;;;;;;;22.07;82.68;100454.98;2814682;83;21067;-92
2022/06/29 01:13:22;;;;;;;16.57;5.15;;;;;;;22.11;82.46;100459.50;2792376;83;21672;-92
2022/06/29 01:17:23;;;;;;;5.97;5.33;;;;;;;22.14;82.43;100460.45;2786844;83;21090;-93
2022/06/29 01:21:28;;;;;;;5.75;5.17;;;;;;;22.25;82.15;100460.41;2816853;83;21023;-93
2022/06/29 01:25:29;;;;;;;4.65;4.12;;;;;;;22.31;81.67;100462.31;2814019;83;21038;-92
2022/06/29 01:29:31;;;;;;;5.70;4.35;;;;;;;22.35;81.55;100462.23;2804389;83;21082;-93
2022/06/29 01:33:32;;;;;;;6.12;5.22;;;;;;;22.39;81.27;100469.45;2814315;83;20972;-92
2022/06/29 01:37:34;;;;;;;10.00;5.40;;;;;;;22.43;81.24;100464.47;2812687;83;21037;-93
2022/06/29 01:41:35;;;;;;;6.05;5.17;;;;;;;22.48;81.05;100470.16;2811046;83;21042;-92
2022/06/29 01:45:36;;;;;;;6.30;5.70;;;;;;;22.53;80.73;100464.45;2810923;83;21035;-92
2022/06/29 01:49:38;;;;;;;3.77;3.47;;;;;;;22.51;80.76;100455.69;2794518;83;21015;-92
2022/06/29 01:53:39;;;;;;;5.58;4.37;;;;;;;22.45;80.86;100455.62;2818086;83;20976;-93
2022/06/29 01:57:41;;;;;;;5.75;4.87;;;;;;;22.42;81.07;100448.72;2807671;83;21007;-93
2022/06/29 02:01:45;;;;;;;7.75;5.53;;;;;;;22.44;81.10;100453.95;2776222;84;21850;-93
2022/06/29 02:05:46;;;;;;;5.50;4.95;;;;;;;22.53;81.00;100458.19;2752645;83;21023;-92
2022/06/29 02:09:47;;;;;;;6.95;6.12;;;;;;;22.54;80.97;100455.28;2787559;83;21014;-93
2022/06/29 02:13:48;;;;;;;7.60;5.17;;;;;;;22.58;80.62;100450.28;2810085;83;21038;-93
2022/06/29 02:17:51;;;;;;;5.70;4.83;;;;;;;22.54;80.64;100443.59;2809402;83;21062;-93
2022/06/29 02:21:52;;;;;;;5.12;4.72;;;;;;;22.51;80.79;100437.22;2809313;83;21039;-93
2022/06/29 02:25:54;;;;;;;7.40;4.92;;;;;;;22.47;80.75;100442.73;2811364;83;21071;-93
2022/06/29 02:29:55;;;;;;;4.92;4.42;;;;;;;22.39;80.96;100435.04;2808501;83;21015;-93
2022/06/29 02:38:17;;;;;;;4.97;4.40;;;;;;;22.35;81.31;100435.66;2812854;83;21047;-93
2022/06/29 02:42:19;;;;;;;5.40;4.33;;;;;;;22.34;81.56;100437.52;2809516;83;21063;-93
2022/06/29 02:46:21;;;;;;;5.60;4.72;;;;;;;22.34;81.67;100442.94;2806562;83;21163;-92
2022/06/29 02:50:22;;;;;;;4.87;4.42;;;;;;;22.34;82.10;100440.23;2803136;83;21031;-91
2022/06/29 02:54:24;;;;;;;4.58;4.17;;;;;;;22.33;82.09;100426.91;2806130;83;21035;-92
2022/06/29 02:58:25;;;;;;;3.87;3.58;;;;;;;22.29;82.00;100433.73;2796495;83;21483;-94
2022/06/29 03:02:27;;;;;;;6.00;4.83;;;;;;;22.28;82.10;100441.55;2804797;83;21012;-91
2022/06/29 03:06:29;;;;;;;5.28;4.20;;;;;;;22.25;82.10;100438.20;2806605;83;21070;-91
2022/06/29 03:10:31;;;;;;;4.85;4.35;;;;;;;22.26;81.99;100433.63;2797432;83;21054;-91
2022/06/29 03:14:32;;;;;;;6.47;5.85;;;;;;;22.28;82.20;100436.13;2811213;84;21078;-89
2022/06/29 03:18:33;;;;;;;7.12;5.78;;;;;;;22.27;82.38;100436.66;2818335;83;21102;-90
2022/06/29 03:22:35;;;;;;;5.55;5.05;;;;;;;22.26;82.66;100432.28;2792587;83;21047;-90
2022/06/29 03:26:36;;;;;;;5.22;4.67;;;;;;;22.28;82.84;100436.98;2817799;83;21070;-90
2022/06/29 03:30:38;;;;;;;6.10;4.60;;;;;;;22.32;83.34;100442.31;2818795;83;21079;-90
2022/06/29 03:34:39;;;;;;;7.53;5.00;;;;;;;22.34;83.61;100444.83;2816189;83;21046;-90
2022/06/29 03:38:41;;;;;;;4.25;3.85;;;;;;;22.30;84.06;100438.97;2817715;83;21027;-91
2022/06/29 03:42:42;;;;;;;5.65;5.12;;;;;;;22.26;84.67;100429.03;2820312;83;21677;-90
2022/06/29 03:46:44;;;;;;;7.92;5.83;;;;;;;22.21;85.59;100428.80;2805032;83;21039;-91
2022/06/29 03:50:45;;;;;;;11.50;5.60;;;;;;;22.14;86.42;100420.31;2795503;83;21027;-90
2022/06/29 03:54:47;;;;;;;5.95;5.17;;;;;;;22.03;87.49;100423.92;2822429;83;20967;-90
2022/06/29 03:58:48;;;;;;;9.00;6.30;;;;;;;21.99;87.99;100422.61;2809782;83;21004;-90
2022/06/29 04:02:49;;;;;;;6.30;5.42;;;;;;;21.94;88.75;100423.73;2795058;83;21031;-91
2022/06/29 04:06:51;;;;;;;7.45;5.50;;;;;;;21.89;89.58;100418.91;2781060;83;21039;-91
2022/06/29 04:10:52;;;;;;;6.25;5.60;;;;;;;21.85;90.15;100421.69;2781303;83;21324;-92
2022/06/29 04:14:54;;;;;;;6.72;5.42;;;;;;;21.78;90.85;100419.47;2794412;83;20996;-91
2022/06/29 04:18:55;;;;;;;6.75;6.12;;;;;;;21.71;91.37;100409.08;2791732;83;21008;-90
2022/06/29 04:23:02;;;;;;;6.62;4.35;;;;;;;21.68;91.75;100408.98;2756763;83;21082;-92
2022/06/29 04:27:04;;;;;;;6.40;5.70;;;;;;;21.65;92.41;100410.73;2779114;84;21071;-89
2022/06/29 04:31:05;;;;;;;6.30;5.75;;;;;;;21.65;92.33;100417.49;2806709;83;21023;-89
2022/06/29 04:35:07;;;;;;;6.45;5.87;;;;;;;21.71;92.58;100420.76;2802399;83;21051;-91
2022/06/29 04:39:08;;;;;;;9.28;6.25;;;;;;;21.82;92.73;100435.62;2805249;83;21087;-90
2022/06/29 04:43:10;;;;;;;6.20;5.60;;;;;;;21.92;92.88;100448.83;2809710;83;21510;-89
2022/06/29 04:47:11;;;;;;;8.68;6.22;;;;;;;21.97;92.62;100440.94;2785217;83;20983;-89
2022/06/29 04:51:15;;;;;;;7.72;6.92;;;;;;;21.99;92.97;100425.33;2803826;83;21035;-88
2022/06/29 04:55:17;;;;;;;9.70;5.67;;;;;;;22.00;93.82;100422.94;2800213;83;21004;-88
2022/06/29 04:59:19;;;;;;;6.47;5.12;;;;;;;21.96;94.87;100413.54;2806657;82;21118;-88
2022/06/29 05:03:20;;;;;;;6.95;5.70;;;;;;;21.86;96.00;100410.36;2816288;83;21515;-88
2022/06/29 05:07:22;;;;;;;7.67;7.05;;;;;;;21.74;96.53;100408.18;2811165;83;20992;-89
2022/06/29 05:11:25;;;;;;;6.30;5.80;;;;;;;21.65;98.04;100406.67;2814076;83;21035;-88
2022/06/29 05:15:27;;;;;;;7.25;6.55;;;;;;;21.64;98.52;100408.49;2814115;83;21000;-89
2022/06/29 05:19:28;;;;;;;7.47;6.58;;;;;;;21.61;99.17;100414.30;2812177;83;21075;-88
2022/06/29 05:23:31;;;;;;;8.03;7.25;;;;;;;21.61;99.69;100413.45;2808341;83;21601;-88
2022/06/29 05:27:33;;;;;;;9.60;7.37;;;;;;;21.66;99.98;100416.46;2813685;83;21027;-88
2022/06/29 05:31:35;;;;;;;9.00;7.25;;;;;;;21.65;100.00;100415.61;2814659;83;21019;-88
2022/06/29 05:35:36;;;;;;;7.92;7.12;;;;;;;21.69;99.93;100425.53;2803041;83;21070;-88
2022/06/29 05:39:38;;;;;;;8.10;7.30;;;;;;;21.65;99.96;100431.03;2813973;83;21075;-88
2022/06/29 05:43:40;;;;;;;9.55;7.83;;;;;;;21.62;100.00;100434.10;2806291;83;21086;-88
2022/06/29 05:47:41;;;;;;;7.12;6.45;;;;;;;21.59;100.00;100439.88;2808836;83;21019;-88
2022/06/29 05:51:42;;;;;;;8.73;7.83;;;;;;;21.49;100.00;100437.50;2812670;83;21011;-88
2022/06/29 05:55:45;;;;;;;10.55;7.80;;;;;;;21.35;100.00;100437.40;2805586;84;21038;-89
2022/06/29 05:59:47;;;;;;;11.97;8.53;;;;;;;21.25;100.00;100440.92;2795024;84;21083;-88
2022/06/29 06:03:49;;;;;;;9.23;7.80;;;;;;;21.17;100.00;100440.53;2817192;83;21034;-88
2022/06/29 06:07:50;;;;;;;10.40;8.23;;;;;;;21.05;100.00;100431.27;2817055;83;21038;-88
2022/06/29 06:11:51;;;;;;;10.03;9.13;;;;;;;20.81;100.00;100419.75;2819002;84;21503;-88
2022/06/29 06:15:53;;;;;;;9.85;8.38;;;;;;;20.61;100.00;100417.61;2797548;83;21070;-88
2022/06/29 06:19:55;;;;;;;14.30;9.98;;;;;;;20.51;100.00;100407.63;2816790;83;21661;-87
2022/06/29 06:23:56;;;;;;;12.07;10.93;;;;;;;20.41;100.00;100419.55;2817883;83;21079;-87
2022/06/29 06:27:58;;;;;;;11.45;9.08;;;;;;;20.33;100.00;100407.50;2821821;83;21090;-86
2022/06/29 06:32:01;;;;;;;14.25;10.08;;;;;;;20.32;100.00;100384.22;2783525;84;21624;-85
2022/06/29 06:36:02;;;;;;;11.48;10.15;;;;;;;20.21;100.00;100338.77;2812848;83;21038;-87
2022/06/29 06:44:27;;;;;;;13.90;12.55;;;;;;;20.02;100.00;100339.67;2802271;83;30008;-86
2022/06/29 06:48:28;;;;;;;15.35;12.30;;;;;;;20.07;100.00;100375.07;2820918;83;21160;-85
2022/06/29 06:52:30;;;;;;;12.88;10.63;;;;;;;20.14;100.00;100387.29;2772027;84;21010;-85
2022/06/29 06:56:31;;;;;;;12.33;11.12;;;;;;;20.25;100.00;100398.16;2820715;83;21038;-85
2022/06/29 07:00:33;;;;;;;14.20;11.50;;;;;;;20.36;100.00;100399.55;2794154;82;21075;-85
2022/06/29 07:04:34;;;;;;;27.52;11.18;;;;;;;20.41;100.00;100388.48;2793856;83;21011;-85
2022/06/29 07:08:38;;;;;;;14.10;11.18;;;;;;;20.45;100.00;100391.66;2762988;84;21063;-85
2022/06/29 07:12:40;;;;;;;11.97;10.32;;;;;;;20.52;100.00;100414.70;2760492;84;21060;-85
2022/06/29 07:16:41;;;;;;;16.75;13.48;;;;;;;20.61;100.00;100430.30;2740599;84;21678;-85
2022/06/29 07:20:42;;;;;;;12.55;10.08;;;;;;;20.65;100.00;100427.05;2766642;84;21041;-86
2022/06/29 07:24:44;;;;;;;15.10;10.85;;;;;;;20.65;100.00;100414.88;2765528;84;21062;-87
2022/06/29 07:28:45;;;;;;;13.95;12.18;;;;;;;20.59;100.00;100403.45;2752446;85;21078;-86
2022/06/29 07:32:46;;;;;;;13.30;11.40;;;;;;;20.48;100.00;100376.94;2803064;83;21337;-87
2022/06/29 07:36:47;;;;;;;12.90;10.53;;;;;;;20.34;100.00;100360.56;2809189;84;21012;-87
2022/06/29 07:40:49;;;;;;;12.05;10.88;;;;;;;20.22;100.00;100364.75;2807842;83;21038;-87
2022/06/29 07:44:50;;;;;;;13.78;12.25;;;;;;;20.16;100.00;100366.86;2809846;83;21000;-86
2022/06/29 07:48:51;;;;;;;12.23;10.93;;;;;;;20.19;100.00;100379.98;2804493;83;21074;-85
2022/06/29 07:52:52;;;;;;;12.60;11.30;;;;;;;20.22;100.00;100389.06;2807157;84;21055;-86
2022/06/29 07:56:54;;;;;;;14.75;13.05;;;;;;;20.26;100.00;100390.39;2810598;84;21008;-85
2022/06/29 08:00:55;;;;;;;15.03;12.45;;;;;;;20.33;100.00;100398.55;2812638;84;21035;-85
2022/06/29 08:04:58;;;;;;;14.43;12.93;;;;;;;20.41;100.00;100389.02;2807242;83;21039;-85
2022/06/29 08:09:02;;;;;;;15.85;13.62;;;;;;;20.53;100.00;100382.08;2815964;83;21350;-85
2022/06/29 08:13:03;;;;;;;15.38;13.88;;;;;;;20.64;100.00;100381.28;2822377;83;21035;-84
2022/06/29 08:17:04;;;;;;;16.15;13.38;;;;;;;20.77;100.00;100377.88;2820814;83;21361;-84
2022/06/29 08:21:06;;;;;;;15.78;14.20;;;;;;;20.84;100.00;100382.91;2821356;83;21016;-84
2022/06/29 08:25:08;;;;;;;17.85;14.78;;;;;;;20.96;100.00;100392.16;2820795;83;21086;-84
2022/06/29 08:29:11;;;;;;;16.57;14.15;;;;;;;21.06;100.00;100381.56;2812942;83;21113;-84
2022/06/29 08:33:12;;;;;;;15.00;13.50;;;;;;;21.11;100.00;100384.52;2786898;84;21323;-85
2022/06/29 08:37:14;;;;;;;13.43;12.05;;;;;;;21.11;100.00;100380.46;2781595;85;21049;-85
2022/06/29 08:41:17;;;;;;;14.85;13.28;;;;;;;21.18;100.00;100394.88;2762733;84;21378;-84
2022/06/29 08:45:20;;;;;;;14.40;12.90;;;;;;;21.19;100.00;100397.90;2743040;85;21017;-85
2022/06/29 08:49:21;;;;;;;17.12;14.18;;;;;;;21.22;100.00;100409.71;2766954;84;21397;-84
2022/06/29 08:53:23;;;;;;;16.00;13.38;;;;;;;21.30;100.00;100393.02;2825079;84;21030;-84
2022/06/29 08:57:26;;;;;;;16.10;14.33;;;;;;;21.34;100.00;100406.47;2824357;83;21507;-84
2022/06/29 09:01:29;;;;;;;15.72;13.75;;;;;;;21.34;100.00;100414.08;2819749;83;22450;-84
2022/06/29 09:05:33;;;;;;;20.25;14.63;;;;;;;21.37;100.00;100426.36;2823771;82;21142;-85
2022/06/29 09:09:59;;;;;;;15.53;13.83;;;;;;;21.38;100.00;100437.01;2824574;82;21020;-85
2022/06/29 09:14:16;;;;;;;15.63;13.32;;;;;;;21.42;100.00;100423.94;2820797;82;21024;-84
2022/06/29 09:18:32;;;;;;;17.42;15.68;;;;;;;21.42;100.00;100424.44;2804238;82;21558;-85
2022/06/29 09:22:41;;;;;;;15.98;13.48;;;;;;;21.37;100.00;100419.09;2769378;84;21124;-85
2022/06/29 09:26:42;;;;;;;16.77;15.10;;;;;;;21.37;100.00;100410.13;2761020;84;21031;-85
2022/06/29 09:30:43;;;;;;;22.10;15.63;;;;;;;21.44;100.00;100399.37;2728303;86;21089;-85
2022/06/29 09:34:49;;;;;;;18.82;15.28;;;;;;;21.49;100.00;100393.70;2715017;85;21052;-84
2022/06/29 09:38:50;;;;;;;15.83;13.78;;;;;;;21.67;100.00;100395.12;2728513;85;21054;-85
2022/06/29 09:42:51;;;;;;;21.33;16.32;;;;;;;21.82;100.00;100398.58;2771514;84;21087;-85
2022/06/29 09:46:58;;;;;;;25.72;17.42;;;;;;;22.04;100.00;100398.50;2730629;84;21056;-85
2022/06/29 09:51:00;;;;;;;16.62;14.58;;;;;;;22.18;100.00;100409.39;2738408;85;21327;-85
2022/06/29 09:55:02;;;;;;;19.65;15.78;;;;;;;22.32;100.00;100396.25;2739431;86;21014;-86
2022/06/29 09:59:06;;;;;;;19.12;15.05;;;;;;;22.60;100.00;100376.39;2764002;84;21102;-86
2022/06/29 10:03:10;;;;;;;17.73;15.95;;;;;;;22.96;100.00;100375.21;2731033;85;21051;-86
2022/06/29 10:07:11;;;;;;;18.60;16.65;;;;;;;23.47;100.00;100355.36;2682473;87;21098;-85
2022/06/29 10:15:53;;;;;;;15.72;14.13;;;;;;;23.94;100.00;100355.80;2748138;85;21042;-86
2022/06/29 10:20:46;;;;;;;19.20;14.83;;;;;;;23.95;98.34;100347.45;2768229;84;21033;-86
2022/06/29 10:25:07;;;;;;;20.48;16.93;;;;;;;23.84;97.33;100320.11;2738626;85;21095;-87
2022/06/29 10:29:16;;;;;;;18.48;16.50;;;;;;;23.88;99.09;100314.05;2707449;86;21077;-86
2022/06/29 10:33:36;;;;;;;18.45;16.30;;;;;;;24.06;98.53;100315.25;2664340;87;21116;-86
2022/06/29 10:37:53;;;;;;;22.10;18.98;;;;;;;24.07;97.44;100321.84;2702904;86;21113;-87
2022/06/29 10:46:14;;;;;;;18.70;16.73;;;;;;;24.23;96.88;100322.41;2711660;86;21049;-86
2022/06/29 10:50:21;;;;;;;24.50;18.73;;;;;;;24.61;97.45;100318.87;2709592;85;21055;-87
2022/06/29 10:54:26;;;;;;;19.23;16.55;;;;;;;24.93;95.61;100308.00;2713141;86;21035;-86
2022/06/29 10:58:29;;;;;;;20.82;17.37;;;;;;;25.22;94.10;100307.56;2710389;86;21042;-87
2022/06/29 11:02:31;;;;;;;21.87;19.17;;;;;;;25.45;92.31;100293.84;2697981;85;21094;-86
2022/06/29 11:19:36;;;;;;;18.23;15.88;;;;;;;25.78;87.94;100288.61;2659736;88;21189;-87
2022/06/29 11:23:37;;;;;;;15.88;14.18;;;;;;;25.75;88.51;100291.80;2609116;88;21056;-87
2022/06/29 11:27:39;;;;;;;14.78;13.38;;;;;;;25.72;86.61;100293.07;2659802;88;21586;-86
2022/06/29 11:31:41;;;;;;;18.05;14.33;;;;;;;25.69;86.85;100302.25;2659932;88;21091;-86
2022/06/29 11:35:42;;;;;;;21.37;15.72;;;;;;;25.78;87.87;100300.36;2678786;88;21043;-87
2022/06/29 11:39:46;;;;;;;16.02;14.28;;;;;;;25.85;85.13;100284.45;2659530;88;21074;-87
2022/06/29 11:44:06;;;;;;;15.45;13.78;;;;;;;25.87;85.91;100287.78;2660010;88;21134;-87
2022/06/29 11:48:15;;;;;;;15.13;13.45;;;;;;;25.98;85.25;100288.39;2672027;86;21062;-87
2022/06/29 11:52:16;;;;;;;18.73;14.63;;;;;;;26.22;84.90;100294.80;2743699;85;21027;-87
2022/06/29 11:56:22;;;;;;;16.20;13.85;;;;;;;26.51;85.39;100302.39;2736058;85;21084;-87
2022/06/29 12:00:24;;;;;;;16.73;14.87;;;;;;;26.74;81.81;100299.46;2774442;83;21054;-87
2022/06/29 12:04:32;;;;;;;15.88;14.35;;;;;;;26.86;81.74;100300.89;2775701;84;21022;-87
2022/06/29 12:08:34;;;;;;;15.40;13.85;;;;;;;27.04;80.10;100289.03;2804615;83;20999;-87
2022/06/29 12:12:36;;;;;;;15.25;13.65;;;;;;;27.27;78.87;100284.13;2822895;83;21074;-87
2022/06/29 12:16:37;;;;;;;14.07;12.68;;;;;;;27.56;78.64;100286.98;2821975;83;21141;-87
2022/06/29 12:20:39;;;;;;;14.33;12.93;;;;;;;27.75;75.74;100282.22;2821493;83;21075;-87
2022/06/29 12:24:40;;;;;;;12.73;10.40;;;;;;;27.83;74.21;100277.44;2820350;83;21058;-87
2022/06/29 12:28:42;;;;;;;16.55;12.37;;;;;;;27.90;76.98;100280.86;2818087;83;21003;-87
2022/06/29 12:32:44;;;;;;;16.45;12.60;;;;;;;27.89;75.45;100287.40;2821527;83;21039;-87
2022/06/29 12:36:46;;;;;;;16.25;14.55;;;;;;;27.77;73.95;100303.30;2820545;83;21011;-87
2022/06/29 12:40:47;;;;;;;13.22;11.78;;;;;;;27.60;75.60;100305.10;2782904;83;21011;-87
2022/06/29 12:44:49;;;;;;;14.38;12.35;;;;;;;27.38;75.94;100312.51;2819527;84;21012;-87
2022/06/29 12:48:51;;;;;;;13.58;12.18;;;;;;;27.21;75.78;100311.00;2821425;84;21031;-87
2022/06/29 12:52:53;;;;;;;11.53;10.40;;;;;;;26.98;75.22;100317.28;2813978;83;21012;-87
2022/06/29 12:56:54;;;;;;;13.88;12.33;;;;;;;26.90;76.35;100303.44;2816689;84;21035;-87
2022/06/29 13:00:56;;;;;;;12.63;11.20;;;;;;;26.84;76.80;100299.70;2806626;82;21069;-87
2022/06/29 13:04:57;;;;;;;16.15;12.98;;;;;;;26.79;76.16;100298.22;2807285;83;21043;-86
2022/06/29 13:08:58;;;;;;;13.00;10.80;;;;;;;26.79;76.76;100281.85;2820305;83;21019;-86
2022/06/29 13:13:00;;;;;;;16.17;10.60;;;;;;;26.75;76.16;100262.38;2814056;83;21054;-86
2022/06/29 13:17:02;;;;;;;13.98;11.93;;;;;;;26.77;76.02;100246.61;2821078;83;21019;-87
2022/06/29 13:21:03;;;;;;;12.85;11.33;;;;;;;26.86;75.98;100244.39;2810617;83;21094;-86
2022/06/29 13:25:06;;;;;;;11.35;10.25;;;;;;;26.94;75.60;100236.41;2806701;83;20955;-86
2022/06/29 13:29:08;;;;;;;12.10;10.90;;;;;;;26.99;75.47;100224.78;2785602;83;21042;-84
2022/06/29 13:33:09;;;;;;;11.80;10.70;;;;;;;27.10;74.72;100214.38;2805669;83;21085;-87
2022/06/29 13:37:10;;;;;;;12.33;11.00;;;;;;;27.08;73.26;100204.23;2807761;83;21038;-85
2022/06/29 13:41:15;;;;;;;28.27;11.88;;;;;;;27.06;74.58;100189.48;2782434;83;21042;-86
2022/06/29 13:45:16;;;;;;;11.05;9.93;;;;;;;27.07;74.66;100169.83;2802764;83;21011;-85
2022/06/29 13:49:17;;;;;;;12.07;10.10;;;;;;;27.11;74.55;100160.08;2802270;83;21062;-85
2022/06/29 13:53:18;;;;;;;12.15;9.33;;;;;;;27.18;74.67;100158.08;2768440;82;21067;-85
2022/06/29 13:57:20;;;;;;;11.30;9.65;;;;;;;27.29;73.17;100183.70;2807780;83;21039;-85
2022/06/29 14:01:21;;;;;;;13.55;10.50;;;;;;;27.34;73.57;100195.27;2808895;83;21023;-85
2022/06/29 14:05:23;;;;;;;11.12;10.03;;;;;;;27.37;73.18;100195.60;2808868;83;21468;-85
2022/06/29 14:09:25;;;;;;;13.08;10.43;;;;;;;27.40;72.91;100197.03;2803468;83;20987;-84
2022/06/29 14:13:27;;;;;;;12.37;10.68;;;;;;;27.50;72.54;100201.33;2803120;84;21047;-85
2022/06/29 14:17:29;;;;;;;11.00;10.00;;;;;;;27.61;72.06;100207.90;2808086;83;21007;-84
2022/06/29 14:21:30;;;;;;;11.10;10.03;;;;;;;27.81;70.84;100195.72;2803267;83;21011;-84
2022/06/29 14:25:32;;;;;;;10.50;9.20;;;;;;;27.95;70.20;100190.79;2805737;83;21019;-84
2022/06/29 14:29:35;;;;;;;11.05;10.00;;;;;;;28.06;70.80;100180.32;2796020;83;20967;-85
2022/06/29 14:33:37;;;;;;;10.55;9.65;;;;;;;28.15;69.99;100162.98;2796930;83;21055;-85
2022/06/29 14:37:38;;;;;;;12.05;10.78;;;;;;;28.30;70.04;100163.84;2813355;83;21337;-84
2022/06/29 14:41:40;;;;;;;10.25;9.28;;;;;;;28.34;69.39;100180.04;2786738;83;21062;-85
2022/06/29 14:45:42;;;;;;;12.82;11.57;;;;;;;28.32;68.66;100160.84;2817577;84;21039;-84
2022/06/29 14:49:44;;;;;;;18.67;9.95;;;;;;;28.17;69.36;100124.50;2812217;83;21003;-85
2022/06/29 14:53:45;;;;;;;14.05;11.20;;;;;;;28.08;69.83;100092.05;2813945;83;21000;-84
2022/06/29 14:57:47;;;;;;;13.32;11.08;;;;;;;27.92;69.76;100069.66;2817994;83;21322;-84
2022/06/29 15:01:49;;;;;;;14.43;12.93;;;;;;;27.77;70.18;100102.47;2815616;83;21181;-85
2022/06/29 15:05:50;;;;;;;13.78;12.37;;;;;;;27.74;70.69;100123.97;2818069;83;21031;-84
2022/06/29 15:09:52;;;;;;;17.50;14.10;;;;;;;27.82;70.58;100152.81;2730289;84;21038;-85
2022/06/29 15:13:53;;;;;;;12.98;11.57;;;;;;;27.85;71.58;100144.97;2806649;83;21533;-86
2022/06/29 15:17:54;;;;;;;13.65;12.23;;;;;;;27.89;71.46;100127.52;2816529;83;21060;-85
2022/06/29 15:21:56;;;;;;;14.70;13.20;;;;;;;27.83;71.32;100114.84;2815602;83;21504;-85
2022/06/29 15:25:57;;;;;;;13.53;12.30;;;;;;;27.83;71.47;100105.28;2815082;83;21031;-85
2022/06/29 15:29:59;;;;;;;11.97;10.82;;;;;;;27.84;70.68;100100.11;2767619;83;21030;-86
2022/06/29 15:42:40;;;;;;;15.60;13.98;;;;;;;27.92;70.99;100114.76;2817266;84;21031;-85
2022/06/29 15:46:42;;;;;;;17.70;14.05;;;;;;;27.98;70.64;100096.00;2816212;83;21094;-85
2022/06/29 15:50:44;;;;;;;15.13;13.38;;;;;;;27.99;70.80;100089.45;2807117;83;21049;-86
2022/06/29 15:59:06;;;;;;;12.47;11.28;;;;;;;27.84;72.76;100037.25;2800520;83;20999;-86
2022/06/29 16:03:07;;;;;;;12.53;11.25;;;;;;;27.70;72.72;100043.58;2802340;83;21051;-85
2022/06/29 16:07:09;;;;;;;17.75;11.33;;;;;;;27.67;72.14;100044.89;2803695;84;21047;-86
2022/06/29 16:11:10;;;;;;;14.95;12.18;;;;;;;27.78;72.26;100028.98;2794831;83;21078;-86
2022/06/29 16:15:12;;;;;;;14.15;12.73;;;;;;;27.93;71.88;100031.14;2808727;84;21070;-85
2022/06/29 16:19:14;;;;;;;13.03;11.70;;;;;;;28.17;72.38;100025.52;2745174;84;20988;-85
2022/06/29 16:23:15;;;;;;;12.10;10.10;;;;;;;28.27;70.58;100038.52;2801607;83;21011;-86
2022/06/29 16:27:17;;;;;;;12.90;11.68;;;;;;;28.32;71.28;100050.93;2812276;83;21023;-86
2022/06/29 16:31:18;;;;;;;13.43;11.00;;;;;;;28.50;69.57;100051.18;2793788;83;20989;-85
2022/06/29 16:35:20;;;;;;;11.78;10.68;;;;;;;28.64;68.57;100053.02;2809215;84;20996;-86
2022/06/29 16:39:21;;;;;;;12.78;11.18;;;;;;;28.74;69.21;100037.27;2710826;83;21046;-86
2022/06/29 16:43:23;;;;;;;11.00;9.85;;;;;;;28.70;68.23;100020.27;2780130;83;21420;-85
2022/06/29 16:47:24;;;;;;;11.55;10.45;;;;;;;28.65;68.62;100010.89;2817502;83;21011;-85
2022/06/29 16:51:26;;;;;;;10.55;9.55;;;;;;;28.59;68.31;100004.23;2798040;83;21022;-85
2022/06/29 16:55:27;;;;;;;14.03;9.90;;;;;;;28.52;69.25;100012.64;2802351;83;21010;-86
2022/06/29 16:59:29;;;;;;;10.40;9.20;;;;;;;28.47;68.67;100018.02;2798741;83;21066;-88
2022/06/29 17:03:30;;;;;;;9.98;8.90;;;;;;;28.33;68.83;100021.13;2814261;83;21046;-85
2022/06/29 17:07:32;;;;;;;9.35;8.45;;;;;;;28.28;69.62;100028.42;2809379;83;21005;-85
2022/06/29 17:11:34;;;;;;;15.80;10.55;;;;;;;28.26;69.79;100024.56;2815053;83;21078;-88
2022/06/29 17:15:36;;;;;;;9.73;8.50;;;;;;;28.25;69.10;100016.63;2816756;83;21000;-87
2022/06/29 17:19:37;;;;;;;8.55;7.65;;;;;;;28.22;69.16;100021.52;2821557;83;21031;-85
2022/06/29 17:23:39;;;;;;;9.58;8.68;;;;;;;28.04;68.50;100011.62;2807986;83;21046;-86
2022/06/29 17:27:40;;;;;;;9.43;8.63;;;;;;;28.04;68.50;100011.62;2808492;83;21291;-86
2022/06/29 17:31:42;;;;;;;10.40;8.90;;;;;;;28.03;69.24;100036.49;2809845;83;20980;-86
2022/06/29 17:35:43;;;;;;;8.70;7.90;;;;;;;27.94;69.91;100024.59;2804987;83;21085;-86
2022/06/29 17:39:45;;;;;;;13.32;7.97;;;;;;;27.90;69.35;100028.06;2814495;83;21027;-86
2022/06/29 17:43:47;;;;;;;12.63;10.35;;;;;;;27.82;70.27;100058.54;2763600;84;21011;-87
2022/06/29 17:47:48;;;;;;;9.93;9.10;;;;;;;27.79;70.29;100081.19;2792240;84;20995;-87
2022/06/29 17:51:50;;;;;;;13.15;9.20;;;;;;;27.57;71.68;100101.53;2823775;83;21028;-86
2022/06/29 17:55:52;;;;;;;12.58;9.30;;;;;;;27.36;72.72;100122.13;2821078;83;21029;-86
2022/06/29 17:59:56;;;;;;;11.77;9.33;;;;;;;27.18;73.27;100111.66;2820103;83;21047;-86
2022/06/29 18:03:58;;;;;;;9.20;8.40;;;;;;;27.14;75.23;100103.67;2809633;84;21043;-86
2022/06/29 18:07:59;;;;;;;14.58;10.88;;;;;;;27.04;77.83;100085.17;2804802;84;21038;-87
2022/06/29 18:12:01;;;;;;;13.32;9.38;;;;;;;26.92;79.76;100078.38;2794664;84;21044;-88
2022/06/29 18:16:04;;;;;;;10.45;9.48;;;;;;;26.71;82.08;100024.38;2810205;84;21032;-87
2022/06/29 18:20:06;;;;;;;14.80;9.78;;;;;;;26.38;84.12;100017.13;2784838;83;21011;-86
2022/06/29 18:24:08;;;;;;;11.95;10.95;;;;;;;26.06;85.57;99982.84;2792336;84;21322;-87
2022/06/29 18:28:10;;;;;;;11.83;10.63;;;;;;;25.77;86.72;99962.28;2811474;84;21023;-87
2022/06/29 18:32:13;;;;;;;15.85;10.03;;;;;;;25.44;87.50;99945.06;2805329;83;21051;-86
2022/06/29 18:36:14;;;;;;;12.55;10.90;;;;;;;25.17;88.16;99928.62;2782953;83;21063;-92
2022/06/29 18:40:16;;;;;;;15.20;11.85;;;;;;;24.97;88.91;99941.67;2770774;83;21078;-91
2022/06/29 18:44:18;;;;;;;12.33;11.08;;;;;;;24.83;90.21;99957.31;2690343;83;21031;-91
2022/06/29 18:48:20;;;;;;;15.10;11.95;;;;;;;24.76;90.77;99954.67;2747636;83;21594;-88
2022/06/29 18:52:21;;;;;;;12.95;10.32;;;;;;;24.72;90.22;99952.08;2804622;83;21035;-87
2022/06/29 18:56:23;;;;;;;13.28;11.43;;;;;;;24.68;90.17;99967.50;2797303;83;21026;-89
2022/06/29 19:00:24;;;;;;;9.85;8.85;;;;;;;24.66;89.94;99969.61;2777812;83;21077;-89
2022/06/29 19:04:26;;;;;;;16.52;10.88;;;;;;;24.68;90.04;99963.96;2795171;83;21086;-88
2022/06/29 19:08:28;;;;;;;11.45;10.35;;;;;;;24.67;90.17;99960.40;2789806;84;21078;-89
2022/06/29 19:12:29;;;;;;;10.60;9.50;;;;;;;24.64;90.34;99965.45;2802039;83;21011;-89